Time;durP1;ratioP1;P1;durP2;ratioP2;P2;SDS_P1;SDS_P2;PMS_P1;PMS_P2;Temp;Humidity;BMP_temperature;BMP_pressure;BME280_temperature;BME280_humidity;BME280_pressure;Samples;Min_cycle;Max_cycle;Signal;HPM_P1;HPM_P2
2021/09/20 00:01:50;;;;;;;5.57;2.22;;;11.60;99.90;;;;;;4980585;28;20038;-68
2021/09/20 00:04:16;;;;;;;4.20;2.15;;;11.50;99.90;;;;;;4980625;28;20046;-68
2021/09/20 00:06:41;;;;;;;3.85;1.92;;;11.50;99.90;;;;;;4980686;28;20038;-68
2021/09/20 00:09:07;;;;;;;9.45;3.08;;;11.50;99.90;;;;;;4980003;28;20030;-68
2021/09/20 00:11:32;;;;;;;3.70;2.20;;;11.50;99.90;;;;;;4979251;28;20669;-68
2021/09/20 00:13:57;;;;;;;4.07;2.00;;;11.50;99.90;;;;;;4978720;28;20045;-68
2021/09/20 00:16:23;;;;;;;3.45;2.28;;;11.50;99.90;;;;;;4980013;28;20141;-68
2021/09/20 00:18:48;;;;;;;6.75;2.15;;;11.40;99.90;;;;;;4978033;28;20042;-68
2021/09/20 00:21:14;;;;;;;5.82;2.30;;;11.40;99.90;;;;;;4980269;28;20041;-68
2021/09/20 00:23:39;;;;;;;5.28;2.22;;;11.40;99.90;;;;;;4979768;28;20371;-68
2021/09/20 00:26:05;;;;;;;5.25;2.00;;;11.30;99.90;;;;;;4980145;28;20034;-68
2021/09/20 00:28:30;;;;;;;3.58;2.20;;;11.20;99.90;;;;;;4978988;28;20031;-68
2021/09/20 00:30:56;;;;;;;3.50;2.10;;;11.20;99.90;;;;;;4978823;28;20035;-67
2021/09/20 00:33:21;;;;;;;5.68;2.40;;;11.20;99.90;;;;;;4979219;28;20501;-68
2021/09/20 00:35:47;;;;;;;3.75;1.98;;;11.20;99.90;;;;;;4978586;28;20038;-68
2021/09/20 00:38:12;;;;;;;7.93;2.75;;;11.20;99.90;;;;;;4978930;28;20034;-68
2021/09/20 00:40:38;;;;;;;5.10;2.25;;;11.20;99.90;;;;;;4978978;28;20037;-68
2021/09/20 00:43:03;;;;;;;4.75;2.00;;;11.20;99.90;;;;;;4978977;28;20092;-68
2021/09/20 00:45:29;;;;;;;6.45;2.25;;;11.20;99.90;;;;;;4979709;28;20045;-67
2021/09/20 00:47:54;;;;;;;4.10;2.05;;;11.20;99.90;;;;;;4977773;28;20127;-68
2021/09/20 00:50:19;;;;;;;3.97;2.42;;;11.10;99.90;;;;;;4979912;28;20145;-68
2021/09/20 00:52:45;;;;;;;3.60;2.10;;;11.10;99.90;;;;;;4978700;28;20133;-67
2021/09/20 00:55:10;;;;;;;4.70;1.95;;;11.10;99.90;;;;;;4979110;28;20030;-68
2021/09/20 00:57:36;;;;;;;6.22;2.85;;;11.10;99.90;;;;;;4978909;28;20049;-67
2021/09/20 01:00:01;;;;;;;6.53;2.55;;;11.10;99.90;;;;;;4979233;28;20045;-68
2021/09/20 01:02:27;;;;;;;3.30;2.17;;;11.10;99.90;;;;;;4978961;28;20053;-68
2021/09/20 01:04:52;;;;;;;3.95;2.38;;;11.10;99.90;;;;;;4979192;28;20034;-68
2021/09/20 01:07:18;;;;;;;6.30;2.42;;;11.10;99.90;;;;;;4977045;28;20042;-68
2021/09/20 01:09:44;;;;;;;10.07;2.85;;;11.00;99.90;;;;;;4978110;28;20041;-68
2021/09/20 01:12:10;;;;;;;9.20;2.80;;;11.00;99.90;;;;;;4971317;28;20046;-68
2021/09/20 01:14:35;;;;;;;7.57;2.53;;;11.00;99.90;;;;;;4979617;28;20029;-67
2021/09/20 01:17:01;;;;;;;3.97;2.28;;;11.00;99.90;;;;;;4978895;28;20038;-68
2021/09/20 01:19:26;;;;;;;7.97;2.55;;;11.00;99.90;;;;;;4978451;28;20045;-68
2021/09/20 01:21:52;;;;;;;4.13;2.33;;;11.00;99.90;;;;;;4978264;28;20069;-68
2021/09/20 01:24:17;;;;;;;4.88;2.25;;;11.00;99.90;;;;;;4978043;28;20747;-68
2021/09/20 01:26:43;;;;;;;4.97;2.38;;;11.00;99.90;;;;;;4984176;28;20029;-68
2021/09/20 01:29:08;;;;;;;6.72;2.42;;;11.00;99.90;;;;;;4977987;28;20732;-68
2021/09/20 01:31:33;;;;;;;6.35;2.60;;;11.00;99.90;;;;;;4979122;28;20242;-68
2021/09/20 01:33:59;;;;;;;9.85;2.60;;;11.10;99.90;;;;;;4977968;28;20108;-68
2021/09/20 01:36:24;;;;;;;5.80;2.45;;;11.00;99.90;;;;;;4978677;28;20042;-68
2021/09/20 01:38:50;;;;;;;8.60;2.92;;;11.10;99.90;;;;;;4980123;28;20653;-68
2021/09/20 01:41:15;;;;;;;6.22;2.67;;;11.10;99.90;;;;;;4981281;28;20239;-68
2021/09/20 01:43:41;;;;;;;5.75;2.22;;;11.10;99.90;;;;;;4984067;28;20040;-68
2021/09/20 01:46:06;;;;;;;7.22;2.80;;;11.10;99.90;;;;;;4981961;28;20026;-68
2021/09/20 01:48:32;;;;;;;4.05;2.17;;;11.10;99.90;;;;;;4980978;28;20042;-70
2021/09/20 01:50:57;;;;;;;5.80;2.38;;;11.10;99.90;;;;;;4980494;28;20089;-64
2021/09/20 01:53:23;;;;;;;6.47;2.67;;;11.20;99.90;;;;;;4978438;28;20149;-64
2021/09/20 01:55:48;;;;;;;6.30;2.22;;;11.10;99.90;;;;;;4980084;28;20038;-64
2021/09/20 01:58:14;;;;;;;9.50;2.70;;;11.10;99.90;;;;;;4974910;28;20034;-64
2021/09/20 02:00:43;;;;;;;6.70;2.55;;;11.10;99.90;;;;;;4978532;28;20046;-64
2021/09/20 02:03:09;;;;;;;5.97;3.05;;;11.10;99.90;;;;;;4977294;28;20402;-64
2021/09/20 02:05:34;;;;;;;6.53;3.08;;;10.70;99.90;;;;;;4976066;28;20045;-63
2021/09/20 02:08:00;;;;;;;9.18;2.20;;;11.20;99.90;;;;;;4978166;28;20549;-63
2021/09/20 02:10:25;;;;;;;6.72;2.47;;;11.10;99.90;;;;;;4979914;28;20045;-64
2021/09/20 02:12:51;;;;;;;6.30;2.63;;;11.10;99.90;;;;;;4981063;28;20046;-64
2021/09/20 02:15:16;;;;;;;5.05;2.85;;;11.00;99.90;;;;;;4980360;28;20189;-64
2021/09/20 02:17:41;;;;;;;7.53;2.70;;;11.10;99.90;;;;;;4979983;28;20042;-64
2021/09/20 02:20:07;;;;;;;8.45;2.70;;;11.10;99.90;;;;;;4983431;28;20612;-64
2021/09/20 02:22:34;;;;;;;6.97;2.95;;;11.10;99.90;;;;;;4981687;28;20113;-64
2021/09/20 02:25:00;;;;;;;7.07;2.40;;;11.10;99.90;;;;;;4981700;28;20114;-64
2021/09/20 02:27:25;;;;;;;4.82;2.95;;;11.10;99.90;;;;;;4982933;28;20046;-64
2021/09/20 02:29:51;;;;;;;3.78;2.38;;;11.20;99.90;;;;;;4983310;28;20041;-64
2021/09/20 02:32:16;;;;;;;14.88;2.63;;;11.10;99.90;;;;;;4983601;28;20042;-64
2021/09/20 02:34:43;;;;;;;4.05;2.65;;;11.20;99.90;;;;;;4983692;28;20094;-64
2021/09/20 02:37:08;;;;;;;6.68;2.40;;;11.30;99.90;;;;;;4983629;28;20105;-64
2021/09/20 02:39:34;;;;;;;7.25;2.97;;;11.10;99.90;;;;;;4983617;28;20522;-64
2021/09/20 02:41:59;;;;;;;5.43;2.50;;;11.10;99.90;;;;;;4982286;28;20415;-64
2021/09/20 02:44:25;;;;;;;7.15;2.30;;;11.20;99.90;;;;;;4982530;28;20042;-64
2021/09/20 02:46:50;;;;;;;6.88;2.80;;;11.10;99.90;;;;;;4982261;28;20038;-64
2021/09/20 02:49:16;;;;;;;5.05;2.40;;;11.10;99.90;;;;;;4981565;28;20046;-64
2021/09/20 02:51:41;;;;;;;8.05;2.60;;;11.20;99.90;;;;;;4982273;28;20105;-64
2021/09/20 02:54:07;;;;;;;4.97;2.25;;;11.10;99.90;;;;;;4981099;28;20043;-64
2021/09/20 02:56:32;;;;;;;8.10;2.60;;;11.10;99.90;;;;;;4982307;28;20317;-63
2021/09/20 02:58:58;;;;;;;5.15;2.53;;;11.10;99.90;;;;;;4981395;28;20037;-64
2021/09/20 03:01:23;;;;;;;5.80;2.30;;;11.10;99.90;;;;;;4982482;28;20073;-64
2021/09/20 03:03:49;;;;;;;3.42;2.38;;;11.10;99.90;;;;;;4981905;28;20037;-63
2021/09/20 03:06:14;;;;;;;4.68;2.58;;;11.10;99.90;;;;;;4981651;28;20041;-64
2021/09/20 03:08:39;;;;;;;5.35;2.50;;;11.10;99.90;;;;;;4980718;28;20042;-64
2021/09/20 03:11:05;;;;;;;5.45;2.92;;;11.10;99.90;;;;;;4979885;28;20042;-64
2021/09/20 03:13:30;;;;;;;6.88;2.42;;;11.10;99.90;;;;;;4980320;28;20030;-64
2021/09/20 03:15:56;;;;;;;4.60;2.53;;;11.10;99.90;;;;;;4981091;28;20796;-63
2021/09/20 03:18:21;;;;;;;8.23;4.13;;;11.00;99.90;;;;;;4981691;28;20106;-64
2021/09/20 03:20:47;;;;;;;4.22;2.63;;;11.10;99.90;;;;;;4984022;28;20039;-64
2021/09/20 03:23:12;;;;;;;5.35;2.50;;;11.00;99.90;;;;;;4981619;28;20731;-64
2021/09/20 03:25:38;;;;;;;5.85;2.20;;;11.00;99.90;;;;;;4982026;28;20034;-68
2021/09/20 03:28:03;;;;;;;6.25;2.65;;;11.20;99.90;;;;;;4980754;28;20084;-64
2021/09/20 03:30:29;;;;;;;5.43;2.72;;;11.00;99.90;;;;;;4981827;28;20034;-64
2021/09/20 03:32:54;;;;;;;4.85;2.50;;;11.40;99.90;;;;;;4981006;28;20045;-64
2021/09/20 03:35:19;;;;;;;4.22;2.58;;;11.10;99.90;;;;;;4980846;28;20030;-63
2021/09/20 03:37:45;;;;;;;6.57;2.40;;;11.00;99.90;;;;;;4979635;28;20680;-63
2021/09/20 03:40:11;;;;;;;5.80;2.85;;;11.10;99.90;;;;;;4980873;28;20106;-63
2021/09/20 03:42:36;;;;;;;9.45;3.10;;;11.00;99.90;;;;;;4981093;28;20525;-64
2021/09/20 03:45:02;;;;;;;5.38;2.50;;;11.00;99.90;;;;;;4979736;28;20438;-64
2021/09/20 03:47:27;;;;;;;5.30;2.58;;;11.00;99.90;;;;;;4979966;28;20129;-63
2021/09/20 03:49:53;;;;;;;5.68;2.67;;;11.00;99.90;;;;;;4977293;28;20121;-64
2021/09/20 03:52:18;;;;;;;5.85;2.30;;;11.00;99.90;;;;;;4980508;28;20049;-63
2021/09/20 03:54:43;;;;;;;7.43;3.00;;;11.00;99.90;;;;;;4980484;28;20034;-63
2021/09/20 03:57:09;;;;;;;6.15;3.00;;;10.90;99.90;;;;;;4961848;28;20140;-63
2021/09/20 03:59:34;;;;;;;5.65;3.03;;;11.60;99.90;;;;;;4981161;28;20479;-64
2021/09/20 04:02:00;;;;;;;5.80;2.60;;;10.90;99.90;;;;;;4981186;28;20076;-64
2021/09/20 04:04:26;;;;;;;7.03;2.80;;;11.00;99.90;;;;;;4981057;28;20862;-64
2021/09/20 04:06:51;;;;;;;7.30;2.90;;;11.00;99.90;;;;;;4980456;28;20077;-64
2021/09/20 04:09:17;;;;;;;6.43;2.65;;;10.90;99.90;;;;;;4978756;28;20491;-64
2021/09/20 04:11:43;;;;;;;5.18;2.80;;;10.90;99.90;;;;;;4978014;28;20617;-64
2021/09/20 04:14:08;;;;;;;4.80;2.28;;;11.00;99.90;;;;;;4980702;28;20042;-64
2021/09/20 04:16:34;;;;;;;6.63;2.70;;;11.00;99.90;;;;;;4979342;28;20824;-64
2021/09/20 04:18:59;;;;;;;7.10;3.03;;;10.90;99.90;;;;;;4978496;28;20045;-64
2021/09/20 04:21:25;;;;;;;7.63;3.05;;;11.00;99.90;;;;;;4979495;28;20038;-64
2021/09/20 04:23:51;;;;;;;6.05;2.63;;;10.90;99.90;;;;;;4978943;28;20136;-64
2021/09/20 04:26:17;;;;;;;6.82;2.85;;;11.00;99.90;;;;;;4977415;28;20034;-64
2021/09/20 04:28:42;;;;;;;6.25;2.72;;;11.00;99.90;;;;;;4977798;28;20588;-64
2021/09/20 04:31:08;;;;;;;4.53;3.00;;;10.90;99.90;;;;;;4962628;28;20103;-64
2021/09/20 04:33:33;;;;;;;6.57;3.10;;;11.00;99.90;;;;;;4977293;28;20704;-64
2021/09/20 04:35:59;;;;;;;6.28;2.40;;;10.90;99.90;;;;;;4978182;28;20038;-64
2021/09/20 04:38:24;;;;;;;6.95;2.70;;;11.00;99.90;;;;;;4979124;28;20049;-65
2021/09/20 04:40:49;;;;;;;5.30;2.80;;;11.00;99.90;;;;;;4978866;28;20571;-64
2021/09/20 04:43:15;;;;;;;5.22;2.63;;;11.00;99.90;;;;;;4979782;28;20026;-64
2021/09/20 04:45:40;;;;;;;7.13;3.38;;;10.90;99.90;;;;;;4979792;28;20657;-64
2021/09/20 04:48:10;;;;;;;5.18;2.65;;;10.90;99.90;;;;;;4978522;28;20038;-64
2021/09/20 04:50:35;;;;;;;9.13;2.75;;;10.90;99.90;;;;;;4979717;28;20447;-64
2021/09/20 04:53:00;;;;;;;4.80;2.60;;;10.90;99.90;;;;;;4977374;28;20041;-64
2021/09/20 04:55:26;;;;;;;7.53;2.70;;;11.00;99.90;;;;;;4978977;28;20872;-64
2021/09/20 04:57:51;;;;;;;5.78;2.80;;;10.90;99.90;;;;;;4977781;28;20100;-64
2021/09/20 05:00:17;;;;;;;5.88;2.85;;;10.90;99.90;;;;;;4979053;28;20037;-64
2021/09/20 05:02:42;;;;;;;3.95;2.42;;;10.90;99.90;;;;;;4977854;28;20034;-64
2021/09/20 05:05:08;;;;;;;6.30;2.63;;;10.90;99.90;;;;;;4979151;28;20068;-64
2021/09/20 05:07:35;;;;;;;3.10;2.30;;;10.90;99.90;;;;;;4978824;28;20053;-64
2021/09/20 05:10:00;;;;;;;8.82;2.70;;;10.90;99.90;;;;;;4980037;28;20042;-64
2021/09/20 05:12:26;;;;;;;5.88;3.25;;;10.90;99.90;;;;;;4978538;28;20042;-64
2021/09/20 05:14:51;;;;;;;6.00;2.47;;;10.90;99.90;;;;;;4979542;28;20037;-64
2021/09/20 05:17:16;;;;;;;7.72;3.08;;;10.90;99.90;;;;;;4977856;28;20391;-64
2021/09/20 05:19:42;;;;;;;5.60;2.78;;;10.90;99.90;;;;;;4978488;28;20066;-64
2021/09/20 05:22:07;;;;;;;9.02;2.80;;;10.90;99.90;;;;;;4978917;28;20656;-64
2021/09/20 05:24:33;;;;;;;9.90;2.50;;;11.00;99.90;;;;;;4977950;28;20034;-64
2021/09/20 05:26:58;;;;;;;4.88;2.78;;;11.00;99.90;;;;;;4977911;28;20072;-64
2021/09/20 05:29:24;;;;;;;6.60;2.53;;;11.00;99.90;;;;;;4978520;28;20038;-64
2021/09/20 05:31:49;;;;;;;5.60;2.72;;;11.10;99.90;;;;;;4978365;28;20058;-64
2021/09/20 05:34:15;;;;;;;12.52;2.95;;;11.10;99.90;;;;;;4986501;28;20033;-64
2021/09/20 05:36:40;;;;;;;5.70;2.90;;;11.10;99.90;;;;;;4977633;28;20030;-64
2021/09/20 05:39:06;;;;;;;5.65;2.50;;;11.10;99.90;;;;;;4977182;28;20246;-64
2021/09/20 05:41:31;;;;;;;10.65;2.72;;;11.20;99.90;;;;;;4978322;28;20105;-64
2021/09/20 05:43:57;;;;;;;6.57;2.53;;;11.20;99.90;;;;;;4978236;28;20045;-64
2021/09/20 05:46:22;;;;;;;3.97;2.88;;;11.30;99.90;;;;;;4985263;28;20030;-64
2021/09/20 05:48:48;;;;;;;5.30;2.60;;;11.40;99.90;;;;;;4975955;28;20065;-64
2021/09/20 05:51:14;;;;;;;7.10;2.60;;;11.40;99.90;;;;;;4978527;28;20388;-64
2021/09/20 05:53:40;;;;;;;7.60;2.80;;;11.50;99.90;;;;;;4978892;28;20169;-64
2021/09/20 05:56:05;;;;;;;4.30;2.70;;;11.50;99.90;;;;;;4978736;28;20113;-63
2021/09/20 05:58:31;;;;;;;21.33;9.88;;;11.50;99.90;;;;;;4980619;28;20574;-66
2021/09/20 06:00:56;;;;;;;5.80;3.33;;;11.50;99.90;;;;;;4979263;28;20041;-64
2021/09/20 06:03:22;;;;;;;7.72;3.10;;;11.50;99.90;;;;;;4980918;28;20034;-63
2021/09/20 06:05:47;;;;;;;6.80;2.25;;;11.60;99.90;;;;;;4981405;28;20722;-63
2021/09/20 06:08:14;;;;;;;5.88;2.50;;;11.70;99.90;;;;;;4979970;28;20520;-65
2021/09/20 06:10:39;;;;;;;4.55;2.40;;;11.80;99.90;;;;;;4979144;28;20101;-64
2021/09/20 06:13:06;;;;;;;7.47;2.55;;;11.80;99.90;;;;;;4978955;28;20561;-65
2021/09/20 06:15:32;;;;;;;6.85;2.70;;;11.80;99.90;;;;;;4979361;28;20652;-64
2021/09/20 06:17:57;;;;;;;5.65;2.78;;;11.90;99.90;;;;;;4977900;28;20046;-64
2021/09/20 06:20:23;;;;;;;3.47;2.35;;;12.00;99.90;;;;;;4976393;28;20695;-64
2021/09/20 06:22:48;;;;;;;4.63;2.28;;;12.00;99.90;;;;;;4977855;28;20034;-64
2021/09/20 06:25:14;;;;;;;3.90;2.00;;;12.10;99.90;;;;;;4973487;28;20728;-65
2021/09/20 06:27:39;;;;;;;5.80;2.45;;;12.30;99.90;;;;;;4975669;28;20035;-64
2021/09/20 06:30:05;;;;;;;7.47;2.42;;;12.20;99.90;;;;;;4977783;28;20039;-64
2021/09/20 06:32:30;;;;;;;4.07;2.30;;;12.10;99.90;;;;;;4976561;28;20518;-65
2021/09/20 06:34:56;;;;;;;5.45;2.70;;;12.20;99.90;;;;;;4977751;28;20252;-65
2021/09/20 06:37:21;;;;;;;4.13;2.33;;;12.20;99.90;;;;;;4976050;28;20046;-64
2021/09/20 06:39:47;;;;;;;4.72;2.78;;;12.40;99.90;;;;;;4977997;28;20038;-64
2021/09/20 06:42:12;;;;;;;7.03;2.67;;;12.50;99.90;;;;;;4979573;28;20096;-64
2021/09/20 06:44:38;;;;;;;6.53;2.00;;;12.60;99.90;;;;;;4979279;28;20041;-64
2021/09/20 06:47:03;;;;;;;7.22;2.70;;;12.60;99.90;;;;;;4975031;28;20035;-64
2021/09/20 06:49:28;;;;;;;6.82;2.58;;;12.60;99.90;;;;;;4979755;28;20057;-64
2021/09/20 06:51:54;;;;;;;6.80;2.70;;;12.60;99.90;;;;;;4979308;28;20873;-65
2021/09/20 06:54:19;;;;;;;4.75;2.58;;;12.70;99.90;;;;;;4979908;28;20034;-65
2021/09/20 06:56:45;;;;;;;4.70;2.63;;;12.70;99.90;;;;;;4981618;28;20117;-65
2021/09/20 06:59:10;;;;;;;4.43;2.30;;;12.70;99.90;;;;;;4982872;28;20608;-64
2021/09/20 07:01:36;;;;;;;9.13;2.58;;;12.80;99.90;;;;;;4981929;28;20034;-65
2021/09/20 07:04:01;;;;;;;5.13;2.75;;;12.70;99.90;;;;;;4982565;28;20844;-64
2021/09/20 07:06:27;;;;;;;7.63;2.65;;;12.70;99.90;;;;;;4982301;28;20076;-64
2021/09/20 07:08:52;;;;;;;3.55;2.20;;;12.60;99.90;;;;;;4979965;28;20854;-65
2021/09/20 07:11:18;;;;;;;5.47;2.55;;;12.90;99.90;;;;;;4980982;28;20039;-64
2021/09/20 07:13:43;;;;;;;2.92;1.80;;;12.80;99.90;;;;;;4982806;28;20062;-64
2021/09/20 07:16:09;;;;;;;4.82;2.40;;;12.90;99.90;;;;;;4981431;28;20045;-64
2021/09/20 07:18:34;;;;;;;7.13;2.22;;;13.00;99.90;;;;;;4981853;28;20030;-63
2021/09/20 07:21:00;;;;;;;4.22;2.35;;;13.10;99.90;;;;;;4979832;28;20086;-63
2021/09/20 07:23:25;;;;;;;4.65;2.28;;;13.10;99.90;;;;;;4981668;28;20041;-63
2021/09/20 07:25:51;;;;;;;3.15;2.00;;;13.30;99.90;;;;;;4982611;28;20298;-63
2021/09/20 07:28:16;;;;;;;8.93;2.30;;;13.20;99.90;;;;;;4981282;28;20034;-63
2021/09/20 07:30:43;;;;;;;4.40;2.28;;;13.20;99.90;;;;;;4982429;28;20043;-64
2021/09/20 07:33:10;;;;;;;5.22;2.42;;;13.50;99.90;;;;;;4981432;28;20034;-63
2021/09/20 07:35:35;;;;;;;3.28;1.98;;;13.50;99.90;;;;;;4981355;28;20046;-63
2021/09/20 07:38:01;;;;;;;4.00;1.95;;;13.50;99.90;;;;;;4981345;28;20030;-64
2021/09/20 07:40:26;;;;;;;4.10;2.22;;;13.50;99.90;;;;;;4980596;28;20417;-63
2021/09/20 07:42:52;;;;;;;7.53;2.25;;;13.70;99.90;;;;;;4982650;28;20094;-63
2021/09/20 07:45:17;;;;;;;4.22;2.03;;;13.70;99.90;;;;;;4983019;28;20084;-63
2021/09/20 07:47:43;;;;;;;4.97;2.30;;;13.70;99.90;;;;;;4980351;28;20065;-63
2021/09/20 07:50:08;;;;;;;8.13;2.20;;;13.90;99.90;;;;;;4980843;28;20486;-63
2021/09/20 07:52:34;;;;;;;8.95;2.70;;;14.10;99.90;;;;;;4979990;28;20753;-63
2021/09/20 07:54:59;;;;;;;5.07;2.53;;;14.20;99.90;;;;;;4980632;28;20046;-63
2021/09/20 07:57:25;;;;;;;7.68;2.90;;;14.20;99.90;;;;;;4978637;28;20061;-63
2021/09/20 07:59:50;;;;;;;5.28;2.00;;;14.70;99.90;;;;;;4980826;28;20478;-63
2021/09/20 08:02:16;;;;;;;4.68;2.25;;;14.70;99.90;;;;;;4980620;28;20767;-63
2021/09/20 08:04:41;;;;;;;5.93;2.22;;;14.80;99.90;;;;;;4980320;28;20153;-63
2021/09/20 08:07:07;;;;;;;3.53;2.28;;;14.60;99.90;;;;;;4980799;28;20125;-63
2021/09/20 08:09:32;;;;;;;5.22;2.40;;;14.80;99.90;;;;;;4979505;28;20116;-63
2021/09/20 08:11:58;;;;;;;4.10;1.90;;;14.60;99.90;;;;;;4980523;28;20038;-63
2021/09/20 08:14:23;;;;;;;15.25;2.72;;;14.30;99.90;;;;;;4979256;28;20117;-63
2021/09/20 08:16:49;;;;;;;5.85;2.58;;;14.50;99.90;;;;;;4979352;28;20783;-63
2021/09/20 08:19:14;;;;;;;4.40;2.00;;;14.80;99.90;;;;;;4979964;28;20030;-63
2021/09/20 08:21:40;;;;;;;6.07;2.60;;;14.70;99.90;;;;;;4979960;28;20604;-64
2021/09/20 08:24:05;;;;;;;3.13;2.03;;;14.70;99.90;;;;;;4980110;28;20034;-63
2021/09/20 08:26:31;;;;;;;4.72;2.33;;;15.10;99.90;;;;;;4978790;28;20086;-63
2021/09/20 08:28:56;;;;;;;9.48;2.30;;;15.10;99.90;;;;;;4977195;28;20045;-63
2021/09/20 08:31:22;;;;;;;4.47;2.17;;;15.40;99.90;;;;;;4979116;28;20038;-63
2021/09/20 08:33:47;;;;;;;6.55;2.22;;;15.30;99.90;;;;;;4979765;28;20042;-63
2021/09/20 08:36:13;;;;;;;5.97;2.50;;;15.10;99.90;;;;;;4979577;28;20034;-63
2021/09/20 08:38:38;;;;;;;4.28;2.10;;;14.80;99.90;;;;;;4979308;28;20046;-63
2021/09/20 08:41:04;;;;;;;4.20;2.25;;;15.10;99.90;;;;;;4979338;28;20034;-63
2021/09/20 08:43:29;;;;;;;6.88;2.70;;;15.30;99.90;;;;;;4980224;28;20129;-63
2021/09/20 08:45:55;;;;;;;5.28;2.55;;;15.30;99.90;;;;;;4978172;28;20049;-63
2021/09/20 08:48:20;;;;;;;10.35;2.50;;;15.40;99.90;;;;;;4979059;28;20073;-63
2021/09/20 08:50:46;;;;;;;8.00;2.47;;;15.60;99.90;;;;;;4979088;28;20045;-63
2021/09/20 08:53:12;;;;;;;6.68;3.85;;;16.00;99.90;;;;;;4978668;28;20034;-64
2021/09/20 08:55:37;;;;;;;4.97;2.60;;;16.20;99.90;;;;;;4979251;28;20458;-63
2021/09/20 08:58:02;;;;;;;3.40;1.90;;;16.20;99.90;;;;;;4978947;28;20042;-65
2021/09/20 09:00:28;;;;;;;4.38;1.98;;;16.20;99.90;;;;;;4978162;28;20045;-64
2021/09/20 09:02:54;;;;;;;4.30;2.40;;;16.20;99.90;;;;;;4979298;28;20066;-63
2021/09/20 09:05:19;;;;;;;5.43;2.13;;;16.00;99.90;;;;;;4961151;28;20042;-63
2021/09/20 09:07:45;;;;;;;4.82;2.63;;;16.10;99.90;;;;;;4977325;28;20065;-63
2021/09/20 09:10:10;;;;;;;3.17;2.22;;;16.50;99.90;;;;;;4978777;28;20042;-63
2021/09/20 09:12:36;;;;;;;5.32;2.05;;;16.20;99.90;;;;;;4960674;28;20060;-63
2021/09/20 09:15:01;;;;;;;5.38;2.72;;;16.50;99.90;;;;;;4978502;28;20033;-63
2021/09/20 09:17:27;;;;;;;8.57;2.60;;;16.70;99.90;;;;;;4977786;28;20034;-64
2021/09/20 09:19:52;;;;;;;6.25;2.17;;;16.60;99.90;;;;;;4960790;28;20848;-64
2021/09/20 09:22:18;;;;;;;6.65;2.22;;;16.50;99.90;;;;;;4978377;28;20522;-63
2021/09/20 09:24:43;;;;;;;4.50;2.70;;;16.60;99.90;;;;;;4976564;28;20041;-64
2021/09/20 09:27:09;;;;;;;7.97;2.67;;;16.60;99.90;;;;;;4978373;28;20034;-64
2021/09/20 09:29:35;;;;;;;3.15;2.22;;;16.90;99.90;;;;;;4960232;28;20421;-64
2021/09/20 09:32:00;;;;;;;6.30;2.97;;;17.00;99.90;;;;;;4978358;28;20022;-65
2021/09/20 09:34:25;;;;;;;4.70;2.38;;;17.10;99.90;;;;;;4978995;28;20038;-64
2021/09/20 09:36:51;;;;;;;4.75;1.95;;;17.10;99.70;;;;;;4977852;28;20931;-64
2021/09/20 09:39:17;;;;;;;5.05;2.35;;;16.40;99.90;;;;;;4978363;28;20041;-65
2021/09/20 09:41:42;;;;;;;8.43;3.22;;;16.60;99.90;;;;;;4978632;28;20144;-65
2021/09/20 09:44:07;;;;;;;9.05;2.03;;;17.00;99.90;;;;;;4978497;28;20046;-65
2021/09/20 09:46:33;;;;;;;5.90;2.00;;;16.70;99.00;;;;;;4979004;28;20038;-65
2021/09/20 09:48:58;;;;;;;3.42;1.80;;;16.80;99.90;;;;;;4977159;28;20145;-64
2021/09/20 09:51:24;;;;;;;8.95;2.78;;;17.10;99.20;;;;;;4977665;28;20049;-65
2021/09/20 09:53:50;;;;;;;3.15;2.10;;;17.10;99.20;;;;;;4978324;28;20145;-65
2021/09/20 09:56:16;;;;;;;5.18;2.30;;;17.40;98.50;;;;;;4977495;28;20068;-65
2021/09/20 09:58:41;;;;;;;9.05;4.05;;;17.70;97.70;;;;;;4977672;28;20486;-65
2021/09/20 10:01:06;;;;;;;4.40;2.05;;;18.10;98.50;;;;;;4975022;28;20022;-64
2021/09/20 10:03:32;;;;;;;10.25;2.35;;;18.10;97.30;;;;;;4977690;28;20833;-65
2021/09/20 10:05:57;;;;;;;7.55;3.80;;;18.20;97.60;;;;;;4977739;28;20042;-64
2021/09/20 10:08:23;;;;;;;3.05;2.05;;;18.30;96.80;;;;;;4976491;28;20076;-64
2021/09/20 10:10:48;;;;;;;4.90;2.65;;;18.50;96.00;;;;;;4978201;28;20038;-64
2021/09/20 10:13:14;;;;;;;6.30;2.30;;;18.60;94.70;;;;;;4977508;28;20593;-65
2021/09/20 10:15:40;;;;;;;3.65;2.08;;;18.40;96.60;;;;;;4980255;28;20069;-65
2021/09/20 10:18:06;;;;;;;5.90;2.17;;;18.00;96.20;;;;;;4978820;28;20529;-64
2021/09/20 10:20:31;;;;;;;5.80;2.03;;;17.80;96.70;;;;;;4979818;28;20030;-65
2021/09/20 10:22:57;;;;;;;2.92;1.60;;;18.10;96.60;;;;;;4979429;28;20454;-64
2021/09/20 10:25:22;;;;;;;3.80;1.92;;;18.40;95.50;;;;;;4978421;28;20042;-64
2021/09/20 10:27:48;;;;;;;3.78;1.80;;;18.40;94.40;;;;;;4978304;28;20033;-65
2021/09/20 10:30:14;;;;;;;3.10;1.65;;;18.40;95.60;;;;;;4978378;28;20129;-65
2021/09/20 10:32:40;;;;;;;6.32;3.78;;;18.30;94.90;;;;;;4981028;28;20038;-64
2021/09/20 10:35:05;;;;;;;4.95;2.10;;;18.20;95.50;;;;;;4980159;28;20064;-64
2021/09/20 10:37:31;;;;;;;4.57;2.20;;;18.60;94.70;;;;;;4978558;28;20820;-65
2021/09/20 10:39:56;;;;;;;3.90;2.20;;;18.70;93.70;;;;;;4980859;28;20033;-64
2021/09/20 10:42:22;;;;;;;6.43;2.70;;;19.00;93.00;;;;;;4979913;28;20766;-65
2021/09/20 10:44:47;;;;;;;4.95;2.22;;;19.40;93.10;;;;;;4978587;28;20042;-65
2021/09/20 10:47:15;;;;;;;4.90;2.97;;;19.60;93.00;;;;;;4987492;28;20034;-65
2021/09/20 10:49:41;;;;;;;4.40;2.67;;;19.50;92.70;;;;;;4975471;28;20074;-65
2021/09/20 10:52:08;;;;;;;4.30;1.98;;;19.70;92.70;;;;;;4980359;28;20121;-65
2021/09/20 10:54:34;;;;;;;4.85;2.03;;;19.60;92.80;;;;;;4982027;28;20077;-64
2021/09/20 10:56:59;;;;;;;4.30;2.15;;;19.40;92.10;;;;;;4963642;28;20038;-64
2021/09/20 10:59:25;;;;;;;4.35;2.13;;;19.00;92.70;;;;;;4982411;28;20130;-65
2021/09/20 11:01:50;;;;;;;4.43;1.73;;;18.70;94.30;;;;;;4981733;28;20106;-65
2021/09/20 11:04:16;;;;;;;5.25;2.38;;;18.40;93.60;;;;;;4982646;28;20033;-65
2021/09/20 11:06:41;;;;;;;2.67;1.77;;;18.10;94.90;;;;;;4983060;28;20061;-65
2021/09/20 11:09:07;;;;;;;6.65;2.30;;;17.90;95.00;;;;;;4982357;28;20039;-64
2021/09/20 11:11:32;;;;;;;4.25;1.95;;;17.60;95.90;;;;;;4982615;28;20034;-65
2021/09/20 11:13:58;;;;;;;5.47;2.03;;;17.60;96.50;;;;;;4982370;28;20034;-64
2021/09/20 11:16:23;;;;;;;6.45;2.53;;;17.40;98.20;;;;;;4979795;28;20106;-64
2021/09/20 11:18:49;;;;;;;10.65;3.25;;;17.30;97.80;;;;;;4981561;28;20887;-64
2021/09/20 11:21:14;;;;;;;5.50;2.80;;;17.30;97.00;;;;;;4980792;28;20046;-65
2021/09/20 11:23:40;;;;;;;4.10;2.15;;;16.90;98.70;;;;;;4980810;28;20110;-64
2021/09/20 11:26:06;;;;;;;3.78;2.30;;;17.10;98.60;;;;;;4982037;28;20034;-64
2021/09/20 11:28:32;;;;;;;3.72;2.25;;;16.90;98.70;;;;;;4980663;28;20038;-65
2021/09/20 11:30:57;;;;;;;3.63;2.55;;;17.10;98.40;;;;;;4980957;28;20030;-64
2021/09/20 11:33:23;;;;;;;4.38;2.45;;;17.30;98.10;;;;;;4981385;28;20112;-65
2021/09/20 11:35:48;;;;;;;2.75;2.03;;;17.40;96.90;;;;;;4981233;28;20062;-65
2021/09/20 11:38:15;;;;;;;3.50;1.95;;;17.40;97.40;;;;;;4981310;28;20042;-64
2021/09/20 11:40:40;;;;;;;5.25;2.20;;;17.30;97.30;;;;;;4979176;28;20402;-65
2021/09/20 11:43:06;;;;;;;4.55;2.42;;;17.00;98.40;;;;;;4980935;28;20030;-65
2021/09/20 11:45:31;;;;;;;4.35;1.88;;;16.80;99.50;;;;;;4981831;28;20022;-64
2021/09/20 11:47:57;;;;;;;3.72;1.92;;;16.80;99.50;;;;;;4979583;28;20038;-65
2021/09/20 11:50:23;;;;;;;9.20;2.75;;;16.80;98.60;;;;;;4980625;28;20042;-64
2021/09/20 11:52:48;;;;;;;4.18;2.67;;;16.80;98.40;;;;;;4979859;28;20045;-64
2021/09/20 11:55:14;;;;;;;5.05;1.90;;;16.70;98.70;;;;;;4981181;28;20196;-64
2021/09/20 11:57:41;;;;;;;2.80;2.13;;;16.70;98.50;;;;;;4980004;28;20053;-64
2021/09/20 12:00:06;;;;;;;4.05;2.33;;;16.70;99.60;;;;;;4980683;28;20049;-65
2021/09/20 12:02:38;;;;;;;4.45;2.15;;;16.70;98.80;;;;;;4980317;28;20045;-65
2021/09/20 12:05:05;;;;;;;4.05;2.05;;;16.60;99.40;;;;;;4979538;28;20038;-65
2021/09/20 12:07:30;;;;;;;6.13;2.50;;;16.70;99.90;;;;;;4979273;28;20057;-64
2021/09/20 12:09:56;;;;;;;5.57;2.22;;;16.60;99.90;;;;;;4980696;28;20514;-64
2021/09/20 12:12:21;;;;;;;7.40;2.65;;;16.50;99.60;;;;;;4979850;28;21024;-64
2021/09/20 12:14:47;;;;;;;3.30;2.00;;;16.60;99.80;;;;;;4978795;28;20122;-64
2021/09/20 12:17:12;;;;;;;4.32;2.17;;;16.60;99.90;;;;;;4979736;28;20042;-65
2021/09/20 12:19:38;;;;;;;6.55;2.42;;;16.50;99.00;;;;;;4979882;28;20027;-64
2021/09/20 12:22:03;;;;;;;5.90;3.10;;;16.40;99.90;;;;;;4979381;28;20522;-64
2021/09/20 12:24:29;;;;;;;7.90;2.60;;;16.40;99.90;;;;;;4986753;28;20106;-65
2021/09/20 12:26:54;;;;;;;4.28;2.30;;;16.50;99.10;;;;;;4979879;28;20537;-65
2021/09/20 12:29:20;;;;;;;2.67;1.70;;;16.60;98.70;;;;;;4979301;28;20042;-65
2021/09/20 12:31:46;;;;;;;2.72;1.88;;;16.60;99.50;;;;;;4978949;28;20553;-65
2021/09/20 12:34:12;;;;;;;4.20;2.15;;;16.60;99.90;;;;;;4980666;28;20113;-65
2021/09/20 12:36:38;;;;;;;6.95;1.90;;;16.80;99.80;;;;;;4979743;28;20120;-65